4 Oceans' Dream — SPG3364 — position and weather

sailwx.info

Track history (hours):
 
Tides and Currents Weather Stations Pressure Air Temp Water Temp Dewpoint Dewpoint Depression Visibility Wind Speed Wind Dir Waves Ship Positions

4 Oceans' Dream

Last reported at 2017-Sep-19 01:01 UTC. Time now 2017-Sep-19 13:42 UTC.
Position N 35°58' W 005°25'.

Type: Pleasure craft. MMSI: 261018120.

Date/timePositionNaut miles runAvg speedWind from/ knotsBaromVisibWave heightAir tempDewpointWater temp
2017-Sep-19 01:01N 35°58' W 005°25'0 2.4
2017-Sep-19 00:59N 35°58' W 005°25'1 2.5
2017-Sep-19 00:27N 35°58' W 005°23'1 2.2
2017-Sep-18 23:56N 35°58' W 005°22'1 2.1
2017-Sep-18 23:30N 35°58' W 005°21'1 1.5
2017-Sep-18 23:00N 35°58' W 005°20'1 1.2
2017-Sep-18 22:30N 35°58' W 005°19'1 1.0
2017-Sep-18 22:00N 35°58' W 005°18'1 1.3
2017-Sep-18 21:29N 35°58' W 005°17'0 0.5
2017-Sep-18 21:00N 35°58' W 005°17'1 2.7
2017-Sep-18 20:31N 35°59' W 005°18'  
2017-Sep-11 02:31N 36°44' W 008°14'0 3.3
2017-Sep-11 02:29N 36°44' W 008°14'21 3.8
2017-Sep-10 21:06N 36°52' W 008°37'1 5.5
2017-Sep-10 20:59N 36°53' W 008°38'3 5.6
2017-Sep-10 20:30N 36°54' W 008°41'1 1.2
2017-Sep-10 20:01N 36°53' W 008°41'1 1.9
2017-Sep-10 19:30N 36°53' W 008°40'47 5.9
2017-Sep-10 11:34N 37°35' W 009°05'2 6.4
2017-Sep-10 11:13N 37°37' W 009°05'12 6.1
2017-Sep-10 09:16N 37°47' W 009°14'1 5.7
2017-Sep-10 09:00N 37°48' W 009°15'2 4.5
2017-Sep-10 08:30N 37°50' W 009°15'3 5.1
2017-Sep-10 08:01N 37°52' W 009°14'2 4.3
2017-Sep-10 07:30N 37°55' W 009°14'1 2.6
2017-Sep-10 07:00N 37°56' W 009°13'1 1.2
2017-Sep-10 06:31N 37°56' W 009°13'2 4.2
2017-Sep-10 06:00N 37°58' W 009°14'1 2.8
2017-Sep-10 05:31N 37°60' W 009°15'1 2.9
2017-Sep-10 05:01N 38°01' W 009°15'2 3.7
2017-Sep-10 04:31N 38°03' W 009°15'2 4.1
2017-Sep-10 04:00N 38°05' W 009°16'2 3.5
2017-Sep-10 03:30N 38°07' W 009°16'3 4.0
2017-Sep-10 02:40N 38°10' W 009°17'1 3.9
2017-Sep-10 02:25N 38°11' W 009°18'2 3.6
2017-Sep-10 01:43N 38°13' W 009°18'1 3.3
2017-Sep-10 01:26N 38°14' W 009°18'2 3.6
2017-Sep-10 00:48N 38°17' W 009°19'2 4.3
2017-Sep-10 00:22N 38°18' W 009°19'1 3.0
2017-Sep-10 00:00N 38°19' W 009°20'2 4.0
2017-Sep-09 23:25N 38°22' W 009°20'2 4.0
2017-Sep-09 22:59N 38°23' W 009°21'2 4.7
2017-Sep-09 22:29N 38°26' W 009°21'2 4.2
2017-Sep-09 21:58N 38°28' W 009°21'2 4.3
2017-Sep-09 21:30N 38°30' W 009°21'2 4.1
2017-Sep-09 21:00N 38°32' W 009°21'2 3.9
2017-Sep-09 20:23N 38°34' W 009°21'2 5.3
2017-Sep-09 20:00N 38°36' W 009°21'4 7.2
2017-Sep-09 19:30N 38°40' W 009°20'5 8.9
2017-Sep-09 18:54N 38°41' W 009°13'1 1.3
2017-Sep-09 17:56N 38°42' W 009°12'  
Track history (hours):
 
Tides and Currents Weather Stations Pressure Air Temp Water Temp Dewpoint Dewpoint Depression Visibility Wind Speed Wind Dir Waves Ship Positions

4 Oceans' Dream

Last reported at 2017-Sep-19 01:01 UTC. Time now 2017-Sep-19 13:42 UTC.
Position N 35°58' W 005°25'.

Type: Pleasure craft. MMSI: 261018120.

Date/timePositionNaut miles runAvg speedWind from/ knotsBaromVisibWave heightAir tempDewpointWater temp
2017-Sep-19 01:01N 35°58' W 005°25'0 2.4
2017-Sep-19 00:59N 35°58' W 005°25'1 2.5
2017-Sep-19 00:27N 35°58' W 005°23'1 2.2
2017-Sep-18 23:56N 35°58' W 005°22'1 2.1
2017-Sep-18 23:30N 35°58' W 005°21'1 1.5
2017-Sep-18 23:00N 35°58' W 005°20'1 1.2
2017-Sep-18 22:30N 35°58' W 005°19'1 1.0
2017-Sep-18 22:00N 35°58' W 005°18'1 1.3
2017-Sep-18 21:29N 35°58' W 005°17'0 0.5
2017-Sep-18 21:00N 35°58' W 005°17'1 2.7
2017-Sep-18 20:31N 35°59' W 005°18'  
2017-Sep-11 02:31N 36°44' W 008°14'0 3.3
2017-Sep-11 02:29N 36°44' W 008°14'21 3.8
2017-Sep-10 21:06N 36°52' W 008°37'1 5.5
2017-Sep-10 20:59N 36°53' W 008°38'3 5.6
2017-Sep-10 20:30N 36°54' W 008°41'1 1.2
2017-Sep-10 20:01N 36°53' W 008°41'1 1.9
2017-Sep-10 19:30N 36°53' W 008°40'47 5.9
2017-Sep-10 11:34N 37°35' W 009°05'2 6.4
2017-Sep-10 11:13N 37°37' W 009°05'12 6.1
2017-Sep-10 09:16N 37°47' W 009°14'1 5.7
2017-Sep-10 09:00N 37°48' W 009°15'2 4.5
2017-Sep-10 08:30N 37°50' W 009°15'3 5.1
2017-Sep-10 08:01N 37°52' W 009°14'2 4.3
2017-Sep-10 07:30N 37°55' W 009°14'1 2.6
2017-Sep-10 07:00N 37°56' W 009°13'1 1.2
2017-Sep-10 06:31N 37°56' W 009°13'2 4.2
2017-Sep-10 06:00N 37°58' W 009°14'1 2.8
2017-Sep-10 05:31N 37°60' W 009°15'1 2.9
2017-Sep-10 05:01N 38°01' W 009°15'2 3.7
2017-Sep-10 04:31N 38°03' W 009°15'2 4.1
2017-Sep-10 04:00N 38°05' W 009°16'2 3.5
2017-Sep-10 03:30N 38°07' W 009°16'3 4.0
2017-Sep-10 02:40N 38°10' W 009°17'1 3.9
2017-Sep-10 02:25N 38°11' W 009°18'2 3.6
2017-Sep-10 01:43N 38°13' W 009°18'1 3.3
2017-Sep-10 01:26N 38°14' W 009°18'2 3.6
2017-Sep-10 00:48N 38°17' W 009°19'2 4.3
2017-Sep-10 00:22N 38°18' W 009°19'1 3.0
2017-Sep-10 00:00N 38°19' W 009°20'2 4.0
2017-Sep-09 23:25N 38°22' W 009°20'2 4.0
2017-Sep-09 22:59N 38°23' W 009°21'2 4.7
2017-Sep-09 22:29N 38°26' W 009°21'2 4.2
2017-Sep-09 21:58N 38°28' W 009°21'2 4.3
2017-Sep-09 21:30N 38°30' W 009°21'2 4.1
2017-Sep-09 21:00N 38°32' W 009°21'2 3.9
2017-Sep-09 20:23N 38°34' W 009°21'2 5.3
2017-Sep-09 20:00N 38°36' W 009°21'4 7.2
2017-Sep-09 19:30N 38°40' W 009°20'5 8.9
2017-Sep-09 18:54N 38°41' W 009°13'1 1.3
2017-Sep-09 17:56N 38°42' W 009°12'  

Dump ship's entire track history